Search for airport 
image banner adimage banner adimage banner ad
image banner ad

CYWY - Wrigley

Located in Wrigley, Canada

ICAO - CYWY, IATA - YWY

Data provided by Airmate  

General information

Coordinates: N63°12'35" W123°26'12"
Elevation is 491 feet MSL.
Magnetic variation is 19.7617° East
View others Airports in Northwest Territories

Operational data

Special qualification required
Current time UTC:
Current local time:
Weather
METAR: CYWY 221600Z 11008KT 8SM FEW004 SCT006 BKN170 M00/M01 A2948 RMK SF1ST3AC4 SF TR FG BNK ON HLTP W OF STN DSIPTG RPDLY PRESFR SLP995
View NOTAMs / SUP AIP / TFR affecting this airport [VIEW]
Communications frequencies: [VIEW]

Runways:

RWY identifierQFULength (ft)Width (ft)SurfaceLDA (ft)
11133°350098GRAVE3005
29313°350098GRAVE3500

Airport contact information

Address: Wrigley Canada

Satellite view of CYWY